Time;durP1;ratioP1;P1;durP2;ratioP2;P2;SDS_P1;SDS_P2;PMS_P1;PMS_P2;Temp;Humidity;BMP_temperature;BMP_pressure;BME280_temperature;BME280_humidity;BME280_pressure;Samples;Min_cycle;Max_cycle;Signal;HPM_P1;HPM_P2
2022/03/26 00:02:43;;;;;;;76.95;32.65;;;;;;;1.66;58.07;99880.73;2158743;82;21031;-61
2022/03/26 00:05:44;;;;;;;78.15;32.65;;;;;;;1.73;58.01;99883.69;2158824;82;21008;-61
2022/03/26 00:08:48;;;;;;;76.73;31.63;;;;;;;1.71;57.85;99884.16;2158690;82;21043;-61
2022/03/26 00:11:49;;;;;;;73.35;31.62;;;;;;;1.66;57.93;99885.06;2138220;82;21151;-61
2022/03/26 00:14:50;;;;;;;76.65;33.18;;;;;;;1.60;58.15;99882.53;2158860;82;21027;-62
2022/03/26 00:17:52;;;;;;;74.53;31.93;;;;;;;1.54;58.48;99884.72;2158714;82;20992;-61
2022/03/26 00:20:53;;;;;;;91.65;37.42;;;;;;;1.52;58.69;99882.15;2158989;81;21543;-61
2022/03/26 00:23:55;;;;;;;91.32;35.58;;;;;;;1.51;58.46;99880.88;2158671;82;21023;-61
2022/03/26 00:26:57;;;;;;;80.30;34.40;;;;;;;1.53;58.66;99877.38;2158515;82;21578;-61
2022/03/26 00:29:58;;;;;;;78.15;32.93;;;;;;;1.52;58.57;99877.39;2158535;82;21043;-61
2022/03/26 00:33:00;;;;;;;74.00;32.30;;;;;;;1.43;58.60;99878.32;2158583;82;21588;-62
2022/03/26 00:36:02;;;;;;;76.10;32.00;;;;;;;1.40;58.71;99876.20;2158588;82;20984;-61
2022/03/26 00:39:03;;;;;;;81.60;32.80;;;;;;;1.30;58.94;99865.91;2159099;82;21519;-61
2022/03/26 00:42:05;;;;;;;82.97;34.73;;;;;;;1.31;59.03;99860.32;2158923;82;21463;-61
2022/03/26 00:45:06;;;;;;;81.75;34.65;;;;;;;1.38;59.36;99860.70;2158953;82;20948;-61
2022/03/26 00:48:08;;;;;;;80.50;35.15;;;;;;;1.49;59.20;99859.31;2158739;82;20996;-61
2022/03/26 00:51:09;;;;;;;77.92;32.90;;;;;;;1.57;59.34;99852.37;2158803;82;21458;-61
2022/03/26 00:54:11;;;;;;;75.95;30.77;;;;;;;1.65;59.16;99853.17;2158760;82;20984;-61
2022/03/26 00:57:13;;;;;;;78.52;31.33;;;;;;;1.69;59.02;99850.11;2178158;81;21501;-61
2022/03/26 01:00:15;;;;;;;;;;;;;;;1.59;58.93;99850.61;2191505;81;20964;-61
2022/03/26 01:03:18;;;;;;;78.67;31.15;;;;;;;1.58;59.01;99841.16;2188598;81;20110;-61
2022/03/26 01:06:20;;;;;;;68.78;29.72;;;;;;;1.51;59.20;99842.08;2189008;81;20943;-61
2022/03/26 01:09:21;;;;;;;76.25;33.00;;;;;;;1.51;59.28;99842.08;2188983;81;21026;-62
2022/03/26 01:12:23;;;;;;;76.65;31.90;;;;;;;1.49;59.67;99831.72;2189033;81;20967;-61
2022/03/26 01:15:25;;;;;;;72.20;30.40;;;;;;;1.55;59.46;99829.11;2189072;81;21015;-61
2022/03/26 01:18:26;;;;;;;72.17;30.32;;;;;;;1.56;59.53;99837.71;2189271;81;20982;-61
2022/03/26 01:21:28;;;;;;;78.67;29.70;;;;;;;1.58;59.26;99836.41;2189115;81;20994;-61
2022/03/26 01:24:29;;;;;;;84.35;34.18;;;;;;;1.55;59.15;99831.70;2189069;81;20974;-61
2022/03/26 01:27:31;;;;;;;71.43;31.47;;;;;;;1.52;60.09;99834.73;2188981;81;21043;-61
2022/03/26 01:30:33;;;;;;;74.00;31.80;;;;;;;1.59;59.98;99836.84;2189089;81;21760;-61
2022/03/26 01:33:34;;;;;;;131.95;48.63;;;;;;;1.61;59.80;99832.08;2188686;81;21700;-61
2022/03/26 01:36:36;;;;;;;116.80;44.55;;;;;;;1.58;59.55;99833.41;2188655;81;21567;-62
2022/03/26 01:39:38;;;;;;;108.43;44.13;;;;;;;1.53;59.58;99829.98;2188999;81;20966;-61
2022/03/26 01:42:39;;;;;;;92.60;37.38;;;;;;;1.48;60.29;99823.56;2188720;81;21760;-61
2022/03/26 01:45:41;;;;;;;92.30;38.23;;;;;;;1.61;60.60;99828.20;2188838;81;20994;-61
2022/03/26 01:48:42;;;;;;;94.00;37.47;;;;;;;1.71;60.42;99815.61;2189046;81;21039;-61
2022/03/26 01:51:44;;;;;;;84.70;34.63;;;;;;;1.83;60.56;99817.22;2189234;81;21258;-61
2022/03/26 01:54:45;;;;;;;85.25;34.92;;;;;;;1.93;60.52;99811.97;2188661;81;21007;-61
2022/03/26 01:57:47;;;;;;;86.45;34.48;;;;;;;1.97;60.65;99818.80;2166227;81;21582;-61
2022/03/26 02:00:48;;;;;;;82.15;36.90;;;;;;;2.06;60.81;99820.86;2158725;82;20941;-61
2022/03/26 02:03:51;;;;;;;100.97;38.70;;;;;;;1.96;60.28;99815.37;2159042;82;21482;-61
2022/03/26 02:06:52;;;;;;;100.80;41.50;;;;;;;1.88;60.81;99818.05;2158932;82;21000;-61
2022/03/26 02:09:54;;;;;;;86.67;36.80;;;;;;;2.08;60.86;99813.95;2158912;82;21569;-61
2022/03/26 02:12:56;;;;;;;80.25;35.23;;;;;;;2.24;60.64;99812.05;2158689;82;20987;-61
2022/03/26 02:15:57;;;;;;;82.67;35.30;;;;;;;2.31;60.58;99812.82;2158924;82;21007;-61
2022/03/26 02:18:59;;;;;;;86.20;34.57;;;;;;;2.30;60.48;99807.25;2158876;82;21058;-61
2022/03/26 02:22:01;;;;;;;85.47;35.53;;;;;;;2.27;60.15;99808.59;2159160;82;22017;-61
2022/03/26 02:25:02;;;;;;;84.67;35.90;;;;;;;2.22;60.78;99805.17;2158438;82;21750;-61
2022/03/26 02:28:04;;;;;;;76.53;35.08;;;;;;;2.13;60.83;99810.47;2158712;82;21518;-61
2022/03/26 02:31:06;;;;;;;82.53;36.03;;;;;;;1.98;60.86;99807.59;2158922;82;20941;-61
2022/03/26 02:34:07;;;;;;;86.02;35.80;;;;;;;1.81;61.78;99806.45;2158630;82;21642;-61
2022/03/26 02:37:09;;;;;;;85.93;37.83;;;;;;;1.86;61.84;99809.87;2159001;82;20957;-61
2022/03/26 02:40:11;;;;;;;81.28;35.03;;;;;;;1.94;62.22;99809.36;2158700;82;21031;-61
2022/03/26 02:43:12;;;;;;;84.15;35.38;;;;;;;2.11;61.90;99807.02;2158823;82;20976;-61
2022/03/26 02:46:14;;;;;;;84.55;36.23;;;;;;;2.19;61.70;99806.51;2158798;82;21007;-61
2022/03/26 02:49:15;;;;;;;81.90;34.83;;;;;;;2.27;61.82;99809.87;2158865;82;21546;-61
2022/03/26 02:52:17;;;;;;;86.08;35.30;;;;;;;2.41;62.24;99807.11;2158419;82;21035;-61
2022/03/26 02:55:18;;;;;;;81.95;34.95;;;;;;;2.48;61.48;99802.27;2158633;82;20988;-61
2022/03/26 02:58:20;;;;;;;83.82;35.35;;;;;;;2.46;61.99;99804.45;2184091;81;21006;-61
2022/03/26 03:01:23;;;;;;;89.07;35.45;;;;;;;2.42;61.75;99799.31;2188660;81;21098;-61
2022/03/26 03:04:24;;;;;;;81.40;34.58;;;;;;;2.48;61.61;99800.12;2161337;81;21542;-61
2022/03/26 03:07:26;;;;;;;81.05;33.83;;;;;;;2.57;61.52;99795.70;2188759;81;21005;-61
2022/03/26 03:10:27;;;;;;;81.30;33.95;;;;;;;2.58;61.42;99800.43;2188916;81;20959;-61
2022/03/26 03:13:29;;;;;;;76.72;33.18;;;;;;;2.52;61.30;99798.77;2189007;81;20974;-61
2022/03/26 03:16:30;;;;;;;75.37;31.23;;;;;;;2.51;61.75;99796.20;2189096;81;21003;-61
2022/03/26 03:19:32;;;;;;;74.42;32.35;;;;;;;2.45;61.95;99785.48;2188787;81;21539;-61
2022/03/26 03:22:33;;;;;;;74.03;31.27;;;;;;;2.49;62.47;99794.08;2188868;81;21311;-61
2022/03/26 03:25:35;;;;;;;80.17;33.13;;;;;;;2.54;62.53;99789.69;2188957;81;21505;-61
2022/03/26 03:28:37;;;;;;;73.78;31.73;;;;;;;2.61;62.55;99788.73;2188639;81;20998;-61
2022/03/26 03:31:44;;;;;;;;;;;;;;;2.69;62.47;99780.42;2191631;81;21461;-61
2022/03/26 03:34:42;;;;;;;73.15;32.13;;;;;;;2.78;62.15;99776.40;2160084;81;20098;-61
2022/03/26 03:37:44;;;;;;;78.37;32.07;;;;;;;2.77;62.52;99776.00;2188978;81;21075;-61
2022/03/26 03:40:45;;;;;;;74.45;31.62;;;;;;;2.83;62.32;99781.95;2189011;81;21308;-61
2022/03/26 03:43:47;;;;;;;79.93;30.87;;;;;;;2.83;62.23;99776.78;2188849;81;21035;-61
2022/03/26 03:46:48;;;;;;;72.42;31.02;;;;;;;2.84;62.23;99771.56;2188724;81;21489;-61
2022/03/26 03:49:50;;;;;;;67.70;29.98;;;;;;;2.84;62.23;99764.25;2188611;81;20990;-61
2022/03/26 03:52:52;;;;;;;70.13;30.20;;;;;;;2.83;62.52;99770.30;2189130;81;21466;-61
2022/03/26 03:55:53;;;;;;;77.03;33.42;;;;;;;2.87;62.74;99766.79;2188701;81;20994;-61
2022/03/26 03:58:56;;;;;;;73.05;31.33;;;;;;;2.87;63.25;99768.08;2159765;81;21546;-61
2022/03/26 04:01:57;;;;;;;68.42;29.52;;;;;;;2.83;63.47;99756.92;2158896;82;20996;-61
2022/03/26 04:04:59;;;;;;;70.17;31.05;;;;;;;2.86;63.01;99752.11;2158886;82;21463;-61
2022/03/26 04:08:00;;;;;;;71.07;31.77;;;;;;;2.82;63.16;99749.17;2158739;81;20976;-61
2022/03/26 04:11:02;;;;;;;69.67;29.45;;;;;;;2.82;63.36;99743.99;2158723;82;21507;-61
2022/03/26 04:14:04;;;;;;;74.30;30.00;;;;;;;2.78;63.49;99745.75;2158726;82;21074;-61
2022/03/26 04:17:06;;;;;;;;;;;;;;;2.76;63.67;99738.01;2161436;82;21027;-61
2022/03/26 04:20:09;;;;;;;69.40;29.52;;;;;;;2.72;63.84;99732.45;2158689;82;20147;-61
2022/03/26 04:23:10;;;;;;;67.22;29.07;;;;;;;2.72;63.78;99732.45;2158726;82;20988;-61
2022/03/26 04:26:12;;;;;;;73.93;30.57;;;;;;;2.74;64.18;99733.30;2159052;82;21491;-61
2022/03/26 04:29:13;;;;;;;71.25;30.08;;;;;;;2.78;63.69;99732.80;2158583;81;21131;-61
2022/03/26 04:32:15;;;;;;;71.55;31.00;;;;;;;2.79;63.97;99726.75;2158604;82;21015;-61
2022/03/26 04:35:17;;;;;;;67.90;29.85;;;;;;;2.78;64.09;99714.21;2158816;82;20980;-61
2022/03/26 04:38:18;;;;;;;68.37;30.20;;;;;;;2.84;64.10;99716.30;2159028;82;21498;-61
2022/03/26 04:41:20;;;;;;;70.60;30.30;;;;;;;2.88;64.24;99713.64;2158636;82;21090;-61
2022/03/26 04:44:21;;;;;;;66.45;29.42;;;;;;;2.94;64.54;99712.27;2158560;82;20968;-61
2022/03/26 04:47:23;;;;;;;68.37;28.43;;;;;;;3.03;64.94;99722.05;2159082;82;21026;-61
2022/03/26 04:50:24;;;;;;;66.65;29.95;;;;;;;3.06;65.19;99709.92;2158547;82;21435;-61
2022/03/26 04:53:26;;;;;;;63.30;27.73;;;;;;;3.14;65.06;99716.71;2158483;82;21527;-61
2022/03/26 04:56:27;;;;;;;70.50;30.15;;;;;;;3.20;64.29;99711.42;2158496;82;20975;-61
2022/03/26 04:59:29;;;;;;;63.78;29.82;;;;;;;3.27;64.31;99713.87;2158711;82;21467;-61
2022/03/26 05:02:31;;;;;;;70.60;31.75;;;;;;;3.35;64.79;99721.53;2158708;82;21024;-61
2022/03/26 05:05:32;;;;;;;74.87;29.25;;;;;;;3.35;65.82;99722.83;2158546;82;21466;-61
2022/03/26 05:08:34;;;;;;;66.87;27.05;;;;;;;3.40;65.51;99717.56;2158537;82;21123;-61
2022/03/26 05:11:36;;;;;;;68.75;29.92;;;;;;;3.50;66.18;99728.64;2158476;82;21094;-61
2022/03/26 05:14:38;;;;;;;69.10;31.42;;;;;;;3.57;65.70;99727.64;2158580;82;21060;-61
2022/03/26 05:17:42;;;;;;;70.08;30.32;;;;;;;3.65;65.95;99715.39;2158592;82;21428;-61
2022/03/26 05:20:43;;;;;;;62.43;28.35;;;;;;;3.76;66.15;99724.27;2137943;82;20980;-61
2022/03/26 05:23:47;;;;;;;66.60;29.30;;;;;;;3.87;66.02;99721.48;2158642;82;21042;-61
2022/03/26 05:26:49;;;;;;;63.28;28.30;;;;;;;4.02;66.17;99723.75;2158789;82;20964;-61
2022/03/26 05:29:50;;;;;;;64.42;28.30;;;;;;;4.15;66.36;99724.36;2158817;82;21051;-61
2022/03/26 05:32:53;;;;;;;67.20;29.33;;;;;;;4.27;66.31;99731.07;2159119;82;20979;-61
2022/03/26 05:35:54;;;;;;;;;;;;;;;4.44;66.52;99724.19;2161295;82;20991;-61
2022/03/26 05:38:56;;;;;;;58.42;27.07;;;;;;;4.60;66.66;99722.14;2158647;82;20099;-61
2022/03/26 05:41:58;;;;;;;60.92;27.98;;;;;;;4.76;66.61;99719.59;2159083;82;21015;-61
2022/03/26 05:44:59;;;;;;;81.60;36.45;;;;;;;4.92;65.83;99712.29;2158843;81;20956;-61
2022/03/26 05:48:05;;;;;;;65.62;28.15;;;;;;;5.07;65.78;99718.02;2158755;81;21506;-61
2022/03/26 05:51:05;;;;;;;59.67;26.62;;;;;;;5.22;65.28;99724.61;2138689;82;21480;-61
2022/03/26 05:54:06;;;;;;;59.55;28.25;;;;;;;5.32;65.32;99728.69;2159040;82;20991;-61
2022/03/26 05:57:08;;;;;;;67.37;28.85;;;;;;;5.46;65.36;99723.11;2164877;81;21054;-61
2022/03/26 06:00:10;;;;;;;58.20;27.32;;;;;;;5.60;65.34;99721.00;2188836;81;21004;-61
2022/03/26 06:03:12;;;;;;;56.63;26.90;;;;;;;5.78;64.70;99720.13;2188644;81;21081;-61
2022/03/26 06:06:13;;;;;;;59.35;27.25;;;;;;;5.93;64.06;99720.98;2188652;81;21053;-61
2022/03/26 06:09:15;;;;;;;66.10;27.85;;;;;;;6.01;63.85;99711.71;2188665;81;21058;-61
2022/03/26 06:12:16;;;;;;;60.03;27.77;;;;;;;6.08;63.20;99719.76;2188691;81;21537;-61
2022/03/26 06:15:18;;;;;;;63.60;28.15;;;;;;;6.22;63.05;99721.52;2188794;81;21039;-61
2022/03/26 06:18:19;;;;;;;64.85;28.38;;;;;;;6.36;62.96;99719.80;2188683;81;21073;-61
2022/03/26 06:21:21;;;;;;;63.80;29.15;;;;;;;6.54;62.94;99722.78;2188797;81;21022;-61
2022/03/26 06:24:22;;;;;;;67.17;28.47;;;;;;;6.70;62.92;99725.77;2188655;81;21037;-61
2022/03/26 06:27:24;;;;;;;65.50;28.30;;;;;;;6.88;62.40;99712.59;2189128;81;21097;-61
2022/03/26 06:30:25;;;;;;;58.10;27.82;;;;;;;7.03;62.35;99723.00;2188683;81;20949;-61
2022/03/26 06:33:27;;;;;;;60.13;27.00;;;;;;;7.23;62.06;99724.97;2189036;81;21019;-61
2022/03/26 06:36:28;;;;;;;59.25;28.07;;;;;;;7.46;60.99;99718.52;2188435;81;21014;-62
2022/03/26 06:39:30;;;;;;;60.17;28.50;;;;;;;7.67;60.47;99716.52;2188875;81;21457;-61
2022/03/26 06:42:31;;;;;;;60.90;28.17;;;;;;;7.80;60.01;99712.13;2188903;81;21010;-61
2022/03/26 06:45:33;;;;;;;58.30;27.15;;;;;;;7.97;60.66;99708.92;2188603;81;21581;-61
2022/03/26 06:48:34;;;;;;;57.60;28.17;;;;;;;8.04;59.33;99728.28;2188499;81;20991;-61
2022/03/26 06:51:36;;;;;;;63.42;27.52;;;;;;;8.17;59.03;99720.39;2188786;81;21508;-61
2022/03/26 06:54:38;;;;;;;58.60;26.52;;;;;;;8.30;58.94;99713.81;2188793;81;21053;-61
2022/03/26 06:57:41;;;;;;;61.25;29.20;;;;;;;8.46;58.58;99711.50;2180117;81;21518;-61
2022/03/26 07:00:43;;;;;;;57.48;28.47;;;;;;;8.56;58.46;99703.29;2158428;82;21554;-61
2022/03/26 07:03:44;;;;;;;60.85;28.35;;;;;;;8.71;58.41;99704.47;2158603;82;20996;-61
2022/03/26 07:06:45;;;;;;;62.10;30.00;;;;;;;8.96;57.87;99697.32;2158629;82;21530;-61
2022/03/26 07:09:47;;;;;;;62.53;30.65;;;;;;;9.10;56.87;99696.77;2158791;82;20992;-61
2022/03/26 07:12:48;;;;;;;63.65;31.12;;;;;;;9.35;56.72;99695.31;2158606;82;21019;-61
2022/03/26 07:15:50;;;;;;;64.95;30.02;;;;;;;9.60;56.37;99694.73;2158723;82;21015;-61
2022/03/26 07:18:52;;;;;;;58.75;27.25;;;;;;;9.82;55.84;99699.88;2158741;82;20984;-61
2022/03/26 07:21:53;;;;;;;59.27;27.50;;;;;;;9.94;55.94;99693.23;2158868;82;21012;-61
2022/03/26 07:24:55;;;;;;;56.73;28.03;;;;;;;10.21;56.87;99692.45;2158828;82;20949;-61
2022/03/26 07:27:56;;;;;;;56.35;25.95;;;;;;;10.43;55.21;99677.06;2158813;82;21570;-61
2022/03/26 07:30:58;;;;;;;53.78;25.77;;;;;;;10.67;53.26;99690.80;2158620;82;21015;-61
2022/03/26 07:33:59;;;;;;;53.75;24.50;;;;;;;10.65;53.58;99686.94;2158591;82;21513;-61
2022/03/26 07:37:01;;;;;;;55.73;26.05;;;;;;;10.82;52.53;99686.58;2158374;82;21020;-61
2022/03/26 07:40:02;;;;;;;56.67;27.20;;;;;;;11.00;52.97;99692.25;2158878;82;21042;-62
2022/03/26 07:43:04;;;;;;;51.53;26.17;;;;;;;11.12;52.91;99674.19;2159056;82;21043;-61
2022/03/26 07:46:05;;;;;;;62.08;25.90;;;;;;;11.34;52.07;99686.64;2158757;82;20982;-61
2022/03/26 07:49:07;;;;;;;53.30;22.73;;;;;;;11.64;52.08;99679.89;2159087;82;21012;-61
2022/03/26 07:52:08;;;;;;;50.05;23.15;;;;;;;11.61;51.72;99689.64;2158907;81;20973;-61
2022/03/26 07:55:10;;;;;;;50.00;22.52;;;;;;;11.68;51.66;99677.05;2158773;82;21557;-61
2022/03/26 07:58:12;;;;;;;50.08;24.57;;;;;;;11.74;51.81;99688.55;2170234;81;20995;-61
2022/03/26 08:01:13;;;;;;;52.03;25.27;;;;;;;11.98;51.47;99676.37;2189075;81;21010;-61
2022/03/26 08:04:15;;;;;;;52.17;24.40;;;;;;;12.15;51.25;99672.84;2188920;81;20978;-61
2022/03/26 08:07:16;;;;;;;55.27;25.70;;;;;;;12.38;50.72;99684.73;2188962;81;20959;-61
2022/03/26 08:10:18;;;;;;;52.30;25.73;;;;;;;12.43;50.10;99677.45;2189189;81;21007;-61
2022/03/26 08:13:19;;;;;;;51.48;24.85;;;;;;;12.52;50.77;99671.30;2188833;81;21006;-62
2022/03/26 08:16:21;;;;;;;54.33;23.83;;;;;;;12.76;50.51;99673.87;2189223;81;20986;-62
2022/03/26 08:19:22;;;;;;;47.37;23.97;;;;;;;12.83;49.01;99663.38;2188969;81;20940;-61
2022/03/26 08:22:24;;;;;;;53.77;24.17;;;;;;;12.80;49.33;99675.84;2189092;81;21041;-62
2022/03/26 08:28:28;;;;;;;51.98;24.67;;;;;;;13.10;48.93;99660.55;2161308;81;21018;-62
2022/03/26 08:31:31;;;;;;;51.23;24.15;;;;;;;13.26;48.04;99628.44;2188842;81;21053;-61
2022/03/26 08:34:32;;;;;;;52.10;24.90;;;;;;;13.26;47.89;99646.00;2188920;81;20970;-61
2022/03/26 08:37:34;;;;;;;52.62;25.55;;;;;;;13.30;48.82;99632.59;2188488;81;21038;-61
2022/03/26 08:40:36;;;;;;;48.30;23.93;;;;;;;13.59;47.94;99673.51;2189080;81;20943;-61
2022/03/26 08:43:37;;;;;;;48.30;22.30;;;;;;;13.71;46.72;99638.95;2188763;81;21042;-62
2022/03/26 08:46:39;;;;;;;54.73;24.17;;;;;;;13.78;46.17;99642.08;2189097;81;21014;-61
2022/03/26 08:49:44;;;;;;;48.38;21.70;;;;;;;13.67;45.53;99659.85;2188762;81;21015;-62
2022/03/26 08:52:47;;;;;;;48.40;23.32;;;;;;;13.68;45.31;99654.48;2161247;81;21018;-61
2022/03/26 08:55:48;;;;;;;50.35;23.02;;;;;;;13.78;45.90;99659.22;2161337;81;20971;-62
2022/03/26 08:58:51;;;;;;;50.00;21.97;;;;;;;13.72;45.00;99647.25;2173460;81;21011;-61
2022/03/26 09:01:53;;;;;;;47.78;22.98;;;;;;;13.83;45.46;99654.49;2158936;82;20980;-62
2022/03/26 09:04:56;;;;;;;49.60;20.63;;;;;;;13.98;45.30;99630.30;2158950;82;21003;-62
2022/03/26 09:07:58;;;;;;;45.75;20.17;;;;;;;14.18;43.73;99639.12;2158708;82;21035;-62
2022/03/26 09:10:59;;;;;;;48.50;19.95;;;;;;;14.21;43.22;99632.33;2158881;82;21506;-62
2022/03/26 09:14:02;;;;;;;45.20;17.93;;;;;;;14.35;42.04;99633.23;2158959;82;21019;-62
2022/03/26 09:17:04;;;;;;;40.20;17.32;;;;;;;14.49;41.52;99632.35;2158995;82;20972;-62
2022/03/26 09:20:05;;;;;;;42.30;17.33;;;;;;;14.68;40.98;99635.55;2159110;82;21050;-62
2022/03/26 09:23:06;;;;;;;41.87;17.27;;;;;;;14.73;40.85;99623.35;2158957;82;20987;-62
2022/03/26 09:26:08;;;;;;;42.95;16.95;;;;;;;14.88;39.91;99649.22;2159166;82;21014;-62
2022/03/26 09:29:09;;;;;;;39.00;15.90;;;;;;;15.04;40.71;99618.66;2158962;82;21030;-62
2022/03/26 09:32:11;;;;;;;39.23;16.30;;;;;;;15.29;39.18;99601.17;2158814;81;21475;-62
2022/03/26 09:35:12;;;;;;;42.47;17.20;;;;;;;15.24;39.65;99609.39;2159176;82;21023;-62
2022/03/26 09:38:14;;;;;;;39.67;17.23;;;;;;;15.16;39.53;99609.92;2158843;82;21060;-62
2022/03/26 09:41:16;;;;;;;39.57;16.20;;;;;;;15.17;39.24;99634.08;2159203;82;20968;-62
2022/03/26 09:44:18;;;;;;;39.40;17.45;;;;;;;15.21;38.79;99597.72;2158855;82;21482;-62
2022/03/26 09:47:20;;;;;;;39.10;14.25;;;;;;;15.31;39.36;99585.56;2158782;82;21034;-62
2022/03/26 09:50:21;;;;;;;46.97;16.73;;;;;;;15.37;38.64;99590.91;2158950;81;21529;-62
2022/03/26 09:53:23;;;;;;;39.10;16.05;;;;;;;15.39;38.07;99588.53;2158774;82;21032;-62
2022/03/26 09:56:24;;;;;;;38.70;15.97;;;;;;;15.64;38.66;99584.66;2158946;82;20988;-62
2022/03/26 09:59:26;;;;;;;36.60;16.30;;;;;;;15.74;37.29;99600.25;2158724;82;21027;-62
2022/03/26 10:02:27;;;;;;;33.40;13.60;;;;;;;15.68;37.46;99575.56;2158833;82;20984;-62
2022/03/26 10:05:29;;;;;;;36.95;15.15;;;;;;;15.63;37.12;99594.86;2158932;82;20956;-62
2022/03/26 10:08:31;;;;;;;36.35;13.30;;;;;;;15.79;37.34;99584.08;2158901;82;21044;-62
2022/03/26 10:11:33;;;;;;;35.40;15.20;;;;;;;15.75;37.50;99583.44;2158763;82;21019;-61
2022/03/26 10:14:34;;;;;;;35.47;15.23;;;;;;;15.67;37.29;99592.38;2158895;82;21035;-62
2022/03/26 10:17:36;;;;;;;33.33;13.60;;;;;;;15.70;38.15;99583.77;2159107;82;21007;-62
2022/03/26 10:20:37;;;;;;;36.00;13.75;;;;;;;16.00;37.25;99615.62;2158800;82;21673;-62
2022/03/26 10:23:39;;;;;;;35.75;14.10;;;;;;;15.93;37.04;99585.27;2158779;82;21014;-62
2022/03/26 10:26:41;;;;;;;37.10;13.65;;;;;;;15.97;36.43;99567.39;2158797;82;20948;-61
2022/03/26 10:29:42;;;;;;;32.13;12.97;;;;;;;16.20;36.46;99554.66;2158907;82;21015;-62
2022/03/26 10:35:47;;;;;;;36.60;13.45;;;;;;;16.49;35.58;99564.91;2138298;82;21530;-62
2022/03/26 10:38:49;;;;;;;36.27;13.53;;;;;;;16.65;35.95;99564.64;2158689;82;21491;-62
2022/03/26 10:41:52;;;;;;;34.73;13.45;;;;;;;16.84;36.27;99548.66;2158916;82;21067;-62
2022/03/26 10:44:54;;;;;;;38.35;13.62;;;;;;;16.86;34.69;99534.83;2158776;82;21007;-62
2022/03/26 10:47:55;;;;;;;33.90;13.97;;;;;;;16.50;35.75;99555.17;2159041;82;21042;-62
2022/03/26 10:50:57;;;;;;;34.92;12.10;;;;;;;16.66;35.16;99560.17;2158890;82;21666;-62
2022/03/26 10:54:01;;;;;;;33.00;11.57;;;;;;;16.76;35.02;99545.28;2158744;82;21012;-62
2022/03/26 10:57:02;;;;;;;33.40;11.88;;;;;;;16.89;33.45;99551.85;2138198;82;21523;-62
2022/03/26 11:00:05;;;;;;;30.08;11.28;;;;;;;16.89;33.45;99551.85;2181939;81;21014;-62
2022/03/26 11:03:07;;;;;;;26.97;9.98;;;;;;;16.89;33.61;99543.41;2161609;81;21545;-62
2022/03/26 11:06:08;;;;;;;31.57;11.67;;;;;;;16.87;33.64;99535.20;2188879;81;20975;-62
2022/03/26 11:09:10;;;;;;;27.25;11.20;;;;;;;17.06;33.88;99515.63;2188666;81;21509;-62
2022/03/26 11:12:11;;;;;;;31.45;11.08;;;;;;;17.17;32.81;99534.69;2188912;81;20978;-62
2022/03/26 11:15:13;;;;;;;28.05;10.78;;;;;;;17.00;33.88;99520.08;2188739;81;21051;-61
2022/03/26 11:18:14;;;;;;;28.40;9.73;;;;;;;17.06;34.06;99528.05;2189008;81;20966;-62
2022/03/26 11:21:16;;;;;;;28.85;11.40;;;;;;;17.10;33.23;99514.92;2188754;81;20983;-62
2022/03/26 11:24:18;;;;;;;31.80;11.90;;;;;;;17.16;33.72;99518.91;2188808;81;21046;-62
2022/03/26 11:27:19;;;;;;;;;;;;;;;17.21;34.16;99497.71;2191345;81;21034;-62
2022/03/26 11:30:21;;;;;;;32.85;12.13;;;;;;;17.16;34.78;99487.10;2188807;81;20110;-62
2022/03/26 11:33:22;;;;;;;30.00;11.18;;;;;;;17.48;34.87;99488.53;2188839;81;21022;-62
2022/03/26 11:36:24;;;;;;;35.08;12.18;;;;;;;17.81;32.79;99489.45;2188664;81;21596;-62
2022/03/26 11:39:25;;;;;;;27.42;10.43;;;;;;;17.82;33.59;99476.06;2188886;81;20982;-62
2022/03/26 11:42:26;;;;;;;30.32;12.03;;;;;;;17.48;33.66;99480.11;2188847;81;21479;-62
2022/03/26 11:51:34;;;;;;;28.00;9.98;;;;;;;17.25;34.77;99489.85;2161365;81;20975;-61
2022/03/26 11:54:36;;;;;;;29.50;10.90;;;;;;;17.43;34.42;99492.88;2188824;81;21474;-62
2022/03/26 11:57:37;;;;;;;28.17;9.63;;;;;;;17.94;32.93;99439.78;2188347;81;21015;-61
2022/03/26 12:00:39;;;;;;;32.15;11.00;;;;;;;18.25;32.28;99485.02;2161983;81;21051;-62
2022/03/26 12:03:41;;;;;;;28.27;11.20;;;;;;;17.73;33.29;99442.33;2158286;82;21063;-62
2022/03/26 12:06:43;;;;;;;27.05;9.30;;;;;;;17.83;32.75;99443.76;2158518;82;21557;-62
2022/03/26 12:09:45;;;;;;;27.85;10.68;;;;;;;17.80;32.36;99460.77;2158589;82;21063;-62
2022/03/26 12:12:46;;;;;;;31.50;10.63;;;;;;;17.54;33.34;99457.56;2158818;82;21526;-62
2022/03/26 12:15:48;;;;;;;30.43;11.03;;;;;;;17.41;33.67;99444.44;2158641;82;20975;-62
2022/03/26 12:18:50;;;;;;;46.08;11.73;;;;;;;17.20;33.71;99444.81;2158882;82;21499;-62
2022/03/26 12:21:51;;;;;;;33.27;11.37;;;;;;;16.92;34.50;99427.08;2158768;82;21020;-62
2022/03/26 12:24:53;;;;;;;27.75;11.10;;;;;;;16.78;34.65;99417.55;2158684;82;21338;-62
2022/03/26 12:27:54;;;;;;;33.58;10.88;;;;;;;16.80;35.08;99419.09;2158280;82;21054;-62
2022/03/26 12:30:56;;;;;;;32.60;10.23;;;;;;;16.58;35.49;99431.83;2158613;82;21070;-62
2022/03/26 12:33:58;;;;;;;28.85;10.53;;;;;;;16.43;35.22;99418.43;2158451;82;21880;-62
2022/03/26 12:36:59;;;;;;;32.15;11.75;;;;;;;16.39;35.81;99436.36;2159128;82;21549;-62
2022/03/26 12:40:01;;;;;;;29.70;10.65;;;;;;;16.42;35.73;99416.27;2158860;82;20971;-62
2022/03/26 12:43:02;;;;;;;30.63;10.47;;;;;;;16.55;35.83;99427.23;2159014;81;21035;-62
2022/03/26 12:46:04;;;;;;;29.65;9.40;;;;;;;16.51;35.92;99411.25;2159016;82;20987;-62
2022/03/26 12:49:05;;;;;;;27.40;8.93;;;;;;;16.28;36.87;99420.45;2158939;82;21011;-62
2022/03/26 12:52:07;;;;;;;28.20;8.50;;;;;;;16.49;36.13;99435.16;2159132;82;21011;-62
2022/03/26 12:55:08;;;;;;;24.77;9.30;;;;;;;16.49;36.13;99435.16;2158980;82;21651;-62
2022/03/26 13:01:13;;;;;;;25.62;8.93;;;;;;;16.53;36.03;99427.84;2131518;82;21501;-62
2022/03/26 13:04:15;;;;;;;27.42;9.08;;;;;;;16.30;36.98;99426.45;2159930;82;21038;-62
2022/03/26 13:07:16;;;;;;;27.60;9.80;;;;;;;16.06;37.40;99397.38;2160337;82;21514;-62
2022/03/26 13:10:18;;;;;;;29.93;9.20;;;;;;;15.76;38.89;99391.58;2160178;82;21444;-62
2022/03/26 13:13:20;;;;;;;26.40;8.53;;;;;;;15.72;38.54;99407.80;2160052;82;20974;-62
2022/03/26 13:16:24;;;;;;;28.05;8.68;;;;;;;15.56;38.79;99389.07;2160066;82;20995;-62
2022/03/26 13:19:24;;;;;;;27.02;8.30;;;;;;;15.59;39.43;99390.16;2131178;82;20983;-62
2022/03/26 13:22:28;;;;;;;22.80;8.15;;;;;;;15.60;39.27;99406.86;2159958;82;21494;-62
2022/03/26 13:25:29;;;;;;;23.95;8.00;;;;;;;15.55;39.13;99400.59;2159714;82;21102;-62
2022/03/26 13:28:31;;;;;;;23.73;7.33;;;;;;;15.41;40.14;99413.97;2159831;82;20998;-62
2022/03/26 13:31:33;;;;;;;20.53;6.50;;;;;;;15.33;39.99;99407.05;2159949;82;20948;-62
2022/03/26 13:34:35;;;;;;;23.32;6.90;;;;;;;15.30;40.09;99396.70;2159449;82;21063;-62
2022/03/26 13:37:37;;;;;;;21.33;6.17;;;;;;;15.16;40.48;99397.71;2159606;82;21058;-62
2022/03/26 13:40:38;;;;;;;19.50;5.70;;;;;;;15.17;40.01;99398.05;2160078;82;20966;-62
2022/03/26 13:43:40;;;;;;;21.67;5.33;;;;;;;15.20;40.22;99407.08;2159932;81;21027;-62
2022/03/26 13:46:42;;;;;;;21.40;5.45;;;;;;;15.15;40.46;99421.95;2159673;82;21114;-62
2022/03/26 13:49:44;;;;;;;19.80;5.67;;;;;;;15.23;40.70;99411.69;2159861;82;21077;-62
2022/03/26 13:52:47;;;;;;;20.68;5.70;;;;;;;15.13;40.39;99421.68;2160071;82;21090;-62
2022/03/26 13:55:48;;;;;;;18.52;5.10;;;;;;;15.13;40.39;99421.68;2159660;82;21043;-62
2022/03/26 13:58:50;;;;;;;18.27;5.10;;;;;;;15.01;40.75;99404.90;2163227;81;21011;-62
2022/03/26 14:01:51;;;;;;;20.07;5.50;;;;;;;14.90;41.09;99444.80;2188956;81;21031;-62
2022/03/26 14:04:53;;;;;;;21.07;5.75;;;;;;;14.80;41.83;99428.39;2188926;81;21454;-62
2022/03/26 14:07:54;;;;;;;20.30;5.80;;;;;;;14.73;41.92;99422.67;2188896;81;21030;-62
2022/03/26 14:10:56;;;;;;;19.37;5.53;;;;;;;14.68;41.70;99424.77;2188823;81;22061;-62
2022/03/26 14:13:57;;;;;;;20.17;5.40;;;;;;;14.67;41.64;99407.27;2189117;81;20994;-61
2022/03/26 14:20:03;;;;;;;22.05;6.37;;;;;;;14.60;43.13;99431.05;2161583;81;21530;-62
2022/03/26 14:23:05;;;;;;;;;;;;;;;14.53;42.61;99420.05;2190986;81;21078;-61